sensor_id;sensor_type;location;lat;lon;timestamp;temperature;humidity
1778;DHT22;886;50.082;8.222;2023-05-10T00:00:44;16.20;99.90
1778;DHT22;886;50.082;8.222;2023-05-10T00:03:11;16.30;99.90
1778;DHT22;886;50.082;8.222;2023-05-10T00:05:38;16.30;99.90
1778;DHT22;886;50.082;8.222;2023-05-10T00:08:06;16.30;99.90
1778;DHT22;886;50.082;8.222;2023-05-10T00:10:33;16.30;99.90
1778;DHT22;886;50.082;8.222;2023-05-10T00:13:03;16.20;99.90
1778;DHT22;886;50.082;8.222;2023-05-10T00:15:33;16.20;99.90
1778;DHT22;886;50.082;8.222;2023-05-10T00:18:03;16.20;99.90
1778;DHT22;886;50.082;8.222;2023-05-10T00:20:31;16.10;99.90
1778;DHT22;886;50.082;8.222;2023-05-10T00:22:59;16.10;99.90
1778;DHT22;886;50.082;8.222;2023-05-10T00:25:26;16.10;99.90
1778;DHT22;886;50.082;8.222;2023-05-10T00:27:53;16.20;99.90
1778;DHT22;886;50.082;8.222;2023-05-10T00:30:22;16.10;99.90
1778;DHT22;886;50.082;8.222;2023-05-10T00:32:51;16.20;99.90
1778;DHT22;886;50.082;8.222;2023-05-10T00:35:19;16.20;99.90
1778;DHT22;886;50.082;8.222;2023-05-10T00:37:46;16.20;99.90
1778;DHT22;886;50.082;8.222;2023-05-10T00:40:14;16.10;99.90
1778;DHT22;886;50.082;8.222;2023-05-10T00:42:47;16.10;99.90
1778;DHT22;886;50.082;8.222;2023-05-10T00:45:14;16.10;99.90
1778;DHT22;886;50.082;8.222;2023-05-10T00:47:41;16.10;99.90
1778;DHT22;886;50.082;8.222;2023-05-10T00:50:12;16.00;99.90
1778;DHT22;886;50.082;8.222;2023-05-10T00:52:42;16.00;99.90
1778;DHT22;886;50.082;8.222;2023-05-10T00:55:16;16.00;99.90
1778;DHT22;886;50.082;8.222;2023-05-10T00:57:45;15.90;99.90
1778;DHT22;886;50.082;8.222;2023-05-10T01:00:13;16.00;99.90
1778;DHT22;886;50.082;8.222;2023-05-10T01:02:45;15.90;99.90
1778;DHT22;886;50.082;8.222;2023-05-10T01:05:17;16.00;99.90
1778;DHT22;886;50.082;8.222;2023-05-10T01:07:45;16.00;99.90
1778;DHT22;886;50.082;8.222;2023-05-10T01:14:15;16.00;99.90
1778;DHT22;886;50.082;8.222;2023-05-10T01:16:51;16.00;99.90
1778;DHT22;886;50.082;8.222;2023-05-10T01:19:23;15.90;99.90
1778;DHT22;886;50.082;8.222;2023-05-10T01:22:04;15.90;99.90
1778;DHT22;886;50.082;8.222;2023-05-10T01:27:50;15.90;99.90
1778;DHT22;886;50.082;8.222;2023-05-10T01:34:06;15.90;99.90
1778;DHT22;886;50.082;8.222;2023-05-10T01:36:42;15.90;99.90
1778;DHT22;886;50.082;8.222;2023-05-10T01:39:17;15.80;99.90
1778;DHT22;886;50.082;8.222;2023-05-10T01:41:54;15.60;99.90
1778;DHT22;886;50.082;8.222;2023-05-10T01:44:29;15.60;99.90
1778;DHT22;886;50.082;8.222;2023-05-10T01:47:05;15.60;99.90
1778;DHT22;886;50.082;8.222;2023-05-10T01:49:39;15.70;99.90
1778;DHT22;886;50.082;8.222;2023-05-10T01:52:11;15.70;99.90
1778;DHT22;886;50.082;8.222;2023-05-10T01:54:43;15.70;99.90
1778;DHT22;886;50.082;8.222;2023-05-10T01:57:16;15.60;99.90
1778;DHT22;886;50.082;8.222;2023-05-10T01:59:49;15.60;99.90
1778;DHT22;886;50.082;8.222;2023-05-10T02:02:18;15.50;99.90
1778;DHT22;886;50.082;8.222;2023-05-10T02:04:49;15.60;99.90
1778;DHT22;886;50.082;8.222;2023-05-10T02:07:18;15.60;99.90
1778;DHT22;886;50.082;8.222;2023-05-10T02:09:46;15.60;99.90
1778;DHT22;886;50.082;8.222;2023-05-10T02:12:18;15.60;99.90
1778;DHT22;886;50.082;8.222;2023-05-10T02:14:47;15.60;99.90
1778;DHT22;886;50.082;8.222;2023-05-10T02:17:21;15.50;99.90
1778;DHT22;886;50.082;8.222;2023-05-10T02:19:51;15.50;99.90
1778;DHT22;886;50.082;8.222;2023-05-10T02:22:21;15.50;99.90
1778;DHT22;886;50.082;8.222;2023-05-10T02:24:57;15.50;99.90
1778;DHT22;886;50.082;8.222;2023-05-10T02:27:27;15.40;99.90
1778;DHT22;886;50.082;8.222;2023-05-10T02:29:56;15.30;99.90
1778;DHT22;886;50.082;8.222;2023-05-10T02:32:25;15.30;99.90
1778;DHT22;886;50.082;8.222;2023-05-10T02:34:55;15.30;99.90
1778;DHT22;886;50.082;8.222;2023-05-10T02:37:24;15.20;99.90
1778;DHT22;886;50.082;8.222;2023-05-10T02:39:54;15.20;99.90
1778;DHT22;886;50.082;8.222;2023-05-10T02:42:26;15.20;99.90
1778;DHT22;886;50.082;8.222;2023-05-10T02:44:56;15.30;99.90
1778;DHT22;886;50.082;8.222;2023-05-10T02:47:27;15.30;99.90
1778;DHT22;886;50.082;8.222;2023-05-10T02:49:59;15.40;99.90
1778;DHT22;886;50.082;8.222;2023-05-10T02:52:38;15.40;99.90
1778;DHT22;886;50.082;8.222;2023-05-10T02:55:12;15.40;99.90
1778;DHT22;886;50.082;8.222;2023-05-10T02:57:51;15.40;99.90
1778;DHT22;886;50.082;8.222;2023-05-10T03:00:24;15.40;99.90
1778;DHT22;886;50.082;8.222;2023-05-10T03:02:51;15.30;99.90
1778;DHT22;886;50.082;8.222;2023-05-10T03:05:37;15.40;99.90
1778;DHT22;886;50.082;8.222;2023-05-10T03:08:04;15.40;99.90
1778;DHT22;886;50.082;8.222;2023-05-10T03:10:33;15.40;99.90
1778;DHT22;886;50.082;8.222;2023-05-10T03:13:16;15.40;99.90
1778;DHT22;886;50.082;8.222;2023-05-10T03:15:57;15.40;99.90
1778;DHT22;886;50.082;8.222;2023-05-10T03:18:31;15.40;99.90
1778;DHT22;886;50.082;8.222;2023-05-10T03:21:06;15.40;99.90
1778;DHT22;886;50.082;8.222;2023-05-10T03:23:41;15.40;99.90
1778;DHT22;886;50.082;8.222;2023-05-10T03:26:16;15.30;99.90
1778;DHT22;886;50.082;8.222;2023-05-10T03:28:45;15.30;99.90
1778;DHT22;886;50.082;8.222;2023-05-10T03:31:15;15.30;99.90
1778;DHT22;886;50.082;8.222;2023-05-10T03:33:46;15.40;99.90
1778;DHT22;886;50.082;8.222;2023-05-10T03:36:16;15.50;99.90
1778;DHT22;886;50.082;8.222;2023-05-10T03:38:43;15.50;99.90
1778;DHT22;886;50.082;8.222;2023-05-10T03:41:10;15.40;99.90
1778;DHT22;886;50.082;8.222;2023-05-10T03:43:38;15.30;99.90
1778;DHT22;886;50.082;8.222;2023-05-10T03:46:05;15.20;99.90
1778;DHT22;886;50.082;8.222;2023-05-10T03:48:33;15.10;99.90
1778;DHT22;886;50.082;8.222;2023-05-10T03:51:00;15.10;99.90
1778;DHT22;886;50.082;8.222;2023-05-10T03:53:28;15.20;99.90
1778;DHT22;886;50.082;8.222;2023-05-10T03:55:56;15.10;99.90
1778;DHT22;886;50.082;8.222;2023-05-10T03:58:23;15.20;99.90
1778;DHT22;886;50.082;8.222;2023-05-10T04:00:54;15.30;99.90
1778;DHT22;886;50.082;8.222;2023-05-10T04:03:26;15.30;99.90
1778;DHT22;886;50.082;8.222;2023-05-10T04:05:59;15.30;99.90
1778;DHT22;886;50.082;8.222;2023-05-10T04:08:29;15.40;99.90
1778;DHT22;886;50.082;8.222;2023-05-10T04:11:05;15.30;99.90
1778;DHT22;886;50.082;8.222;2023-05-10T04:13:33;15.30;99.90
1778;DHT22;886;50.082;8.222;2023-05-10T04:16:00;15.30;99.90
1778;DHT22;886;50.082;8.222;2023-05-10T04:18:30;15.30;99.90
1778;DHT22;886;50.082;8.222;2023-05-10T04:20:58;15.30;99.90
1778;DHT22;886;50.082;8.222;2023-05-10T04:23:26;15.30;99.90
1778;DHT22;886;50.082;8.222;2023-05-10T04:26:00;15.30;99.90
1778;DHT22;886;50.082;8.222;2023-05-10T04:28:28;15.30;99.90
1778;DHT22;886;50.082;8.222;2023-05-10T04:31:01;15.30;99.90
1778;DHT22;886;50.082;8.222;2023-05-10T04:33:29;15.30;99.90
1778;DHT22;886;50.082;8.222;2023-05-10T04:35:57;15.30;99.90
1778;DHT22;886;50.082;8.222;2023-05-10T04:38:25;15.30;99.90
1778;DHT22;886;50.082;8.222;2023-05-10T04:40:52;15.30;99.90
1778;DHT22;886;50.082;8.222;2023-05-10T04:43:21;15.30;99.90
1778;DHT22;886;50.082;8.222;2023-05-10T04:45:49;15.40;99.90
1778;DHT22;886;50.082;8.222;2023-05-10T04:48:17;15.30;99.90
1778;DHT22;886;50.082;8.222;2023-05-10T04:50:44;15.30;99.90
1778;DHT22;886;50.082;8.222;2023-05-10T04:53:11;15.40;99.90
1778;DHT22;886;50.082;8.222;2023-05-10T04:55:41;15.40;99.90
1778;DHT22;886;50.082;8.222;2023-05-10T04:58:09;15.40;99.90
1778;DHT22;886;50.082;8.222;2023-05-10T05:00:37;15.40;99.90
1778;DHT22;886;50.082;8.222;2023-05-10T05:03:04;15.50;99.90
1778;DHT22;886;50.082;8.222;2023-05-10T05:05:32;15.40;99.90
1778;DHT22;886;50.082;8.222;2023-05-10T05:07:59;15.40;99.90
1778;DHT22;886;50.082;8.222;2023-05-10T05:10:27;15.40;99.90
1778;DHT22;886;50.082;8.222;2023-05-10T05:12:55;15.40;99.90
1778;DHT22;886;50.082;8.222;2023-05-10T05:15:23;15.30;99.90
1778;DHT22;886;50.082;8.222;2023-05-10T05:17:51;15.30;99.90
1778;DHT22;886;50.082;8.222;2023-05-10T05:20:19;15.30;99.90
1778;DHT22;886;50.082;8.222;2023-05-10T05:22:46;15.30;99.90
1778;DHT22;886;50.082;8.222;2023-05-10T05:25:14;15.30;99.90
1778;DHT22;886;50.082;8.222;2023-05-10T05:27:42;15.30;99.90
1778;DHT22;886;50.082;8.222;2023-05-10T05:30:10;15.30;99.90
1778;DHT22;886;50.082;8.222;2023-05-10T05:32:38;15.30;99.90
1778;DHT22;886;50.082;8.222;2023-05-10T05:35:07;15.30;99.90
1778;DHT22;886;50.082;8.222;2023-05-10T05:37:34;15.20;99.90
1778;DHT22;886;50.082;8.222;2023-05-10T05:40:02;15.20;99.90
1778;DHT22;886;50.082;8.222;2023-05-10T05:42:31;15.20;99.90
1778;DHT22;886;50.082;8.222;2023-05-10T05:44:58;15.30;99.90
1778;DHT22;886;50.082;8.222;2023-05-10T05:47:29;15.20;99.90
1778;DHT22;886;50.082;8.222;2023-05-10T05:49:57;15.30;99.90
1778;DHT22;886;50.082;8.222;2023-05-10T05:52:30;15.40;99.90
1778;DHT22;886;50.082;8.222;2023-05-10T05:55:04;15.40;99.90
1778;DHT22;886;50.082;8.222;2023-05-10T05:57:31;15.50;99.90
1778;DHT22;886;50.082;8.222;2023-05-10T05:59:59;15.60;99.90
1778;DHT22;886;50.082;8.222;2023-05-10T06:02:26;15.80;99.90
1778;DHT22;886;50.082;8.222;2023-05-10T06:04:54;15.70;99.90
1778;DHT22;886;50.082;8.222;2023-05-10T06:07:21;15.70;99.90
1778;DHT22;886;50.082;8.222;2023-05-10T06:09:50;15.60;99.90
1778;DHT22;886;50.082;8.222;2023-05-10T06:12:20;15.60;99.90
1778;DHT22;886;50.082;8.222;2023-05-10T06:14:48;15.70;99.90
1778;DHT22;886;50.082;8.222;2023-05-10T06:17:15;15.80;99.90
1778;DHT22;886;50.082;8.222;2023-05-10T06:19:45;15.90;99.90
1778;DHT22;886;50.082;8.222;2023-05-10T06:22:16;15.80;99.90
1778;DHT22;886;50.082;8.222;2023-05-10T06:24:44;15.90;99.90
1778;DHT22;886;50.082;8.222;2023-05-10T06:27:13;16.10;99.90
1778;DHT22;886;50.082;8.222;2023-05-10T06:29:40;16.20;99.90
1778;DHT22;886;50.082;8.222;2023-05-10T06:32:07;16.30;99.90
1778;DHT22;886;50.082;8.222;2023-05-10T06:34:34;16.40;99.90
1778;DHT22;886;50.082;8.222;2023-05-10T06:37:02;16.30;99.90
1778;DHT22;886;50.082;8.222;2023-05-10T06:39:30;16.40;99.90
1778;DHT22;886;50.082;8.222;2023-05-10T06:41:58;16.40;99.90
1778;DHT22;886;50.082;8.222;2023-05-10T06:44:26;16.40;99.90
1778;DHT22;886;50.082;8.222;2023-05-10T06:46:53;16.40;99.90
1778;DHT22;886;50.082;8.222;2023-05-10T06:49:22;16.60;99.90
1778;DHT22;886;50.082;8.222;2023-05-10T06:51:51;16.50;99.90
1778;DHT22;886;50.082;8.222;2023-05-10T06:54:18;16.60;99.90
1778;DHT22;886;50.082;8.222;2023-05-10T06:56:49;16.60;99.90
1778;DHT22;886;50.082;8.222;2023-05-10T06:59:16;16.70;99.90
1778;DHT22;886;50.082;8.222;2023-05-10T07:01:45;16.70;99.90
1778;DHT22;886;50.082;8.222;2023-05-10T07:04:12;16.90;99.90
1778;DHT22;886;50.082;8.222;2023-05-10T07:06:40;17.00;99.90
1778;DHT22;886;50.082;8.222;2023-05-10T07:09:08;17.10;99.90
1778;DHT22;886;50.082;8.222;2023-05-10T07:11:55;17.20;99.90
1778;DHT22;886;50.082;8.222;2023-05-10T07:14:23;17.30;99.90
1778;DHT22;886;50.082;8.222;2023-05-10T07:16:52;17.70;99.90
1778;DHT22;886;50.082;8.222;2023-05-10T07:19:19;18.20;99.90
1778;DHT22;886;50.082;8.222;2023-05-10T07:21:47;18.20;99.90
1778;DHT22;886;50.082;8.222;2023-05-10T07:24:14;17.90;99.90
1778;DHT22;886;50.082;8.222;2023-05-10T07:26:42;17.90;99.90
1778;DHT22;886;50.082;8.222;2023-05-10T07:29:09;18.10;99.90
1778;DHT22;886;50.082;8.222;2023-05-10T07:31:37;18.20;99.90
1778;DHT22;886;50.082;8.222;2023-05-10T07:34:07;18.10;99.90
1778;DHT22;886;50.082;8.222;2023-05-10T07:36:35;17.90;99.90
1778;DHT22;886;50.082;8.222;2023-05-10T07:39:02;17.90;99.90
1778;DHT22;886;50.082;8.222;2023-05-10T07:41:30;17.80;99.90
1778;DHT22;886;50.082;8.222;2023-05-10T07:43:57;17.70;99.90
1778;DHT22;886;50.082;8.222;2023-05-10T07:46:24;17.60;99.90
1778;DHT22;886;50.082;8.222;2023-05-10T07:48:52;17.50;99.90
1778;DHT22;886;50.082;8.222;2023-05-10T07:51:24;17.50;99.90
1778;DHT22;886;50.082;8.222;2023-05-10T07:53:52;17.50;99.90
1778;DHT22;886;50.082;8.222;2023-05-10T07:56:21;17.50;99.90
1778;DHT22;886;50.082;8.222;2023-05-10T07:58:51;17.40;99.90
1778;DHT22;886;50.082;8.222;2023-05-10T08:01:19;17.30;99.90
1778;DHT22;886;50.082;8.222;2023-05-10T08:03:47;17.10;99.90
1778;DHT22;886;50.082;8.222;2023-05-10T08:06:14;17.10;99.90
1778;DHT22;886;50.082;8.222;2023-05-10T08:08:46;17.00;99.90
1778;DHT22;886;50.082;8.222;2023-05-10T08:11:16;17.00;99.90
1778;DHT22;886;50.082;8.222;2023-05-10T08:13:44;16.90;99.90
1778;DHT22;886;50.082;8.222;2023-05-10T08:16:11;16.90;99.90
1778;DHT22;886;50.082;8.222;2023-05-10T08:18:44;17.00;99.90
1778;DHT22;886;50.082;8.222;2023-05-10T08:21:12;17.00;99.90
1778;DHT22;886;50.082;8.222;2023-05-10T08:23:40;16.90;99.90
1778;DHT22;886;50.082;8.222;2023-05-10T08:26:11;16.90;99.90
1778;DHT22;886;50.082;8.222;2023-05-10T08:28:39;16.90;99.90
1778;DHT22;886;50.082;8.222;2023-05-10T08:31:06;16.90;99.90
1778;DHT22;886;50.082;8.222;2023-05-10T08:33:33;17.00;99.90
1778;DHT22;886;50.082;8.222;2023-05-10T08:36:00;16.90;99.90
1778;DHT22;886;50.082;8.222;2023-05-10T08:38:28;17.10;99.90
1778;DHT22;886;50.082;8.222;2023-05-10T08:40:55;17.20;99.90
1778;DHT22;886;50.082;8.222;2023-05-10T08:43:27;17.00;99.90
1778;DHT22;886;50.082;8.222;2023-05-10T08:45:56;16.90;99.90
1778;DHT22;886;50.082;8.222;2023-05-10T08:48:24;16.90;99.90
1778;DHT22;886;50.082;8.222;2023-05-10T08:50:53;16.90;99.90
1778;DHT22;886;50.082;8.222;2023-05-10T08:53:24;17.00;99.90
1778;DHT22;886;50.082;8.222;2023-05-10T08:55:57;17.00;99.90
1778;DHT22;886;50.082;8.222;2023-05-10T08:58:26;17.00;99.90
1778;DHT22;886;50.082;8.222;2023-05-10T09:00:53;16.80;99.90
1778;DHT22;886;50.082;8.222;2023-05-10T09:03:21;17.10;99.90
1778;DHT22;886;50.082;8.222;2023-05-10T09:05:49;17.20;99.90
1778;DHT22;886;50.082;8.222;2023-05-10T09:08:16;17.30;99.90
1778;DHT22;886;50.082;8.222;2023-05-10T09:10:44;17.30;99.90
1778;DHT22;886;50.082;8.222;2023-05-10T09:13:15;17.40;99.90
1778;DHT22;886;50.082;8.222;2023-05-10T09:15:45;17.50;99.90
1778;DHT22;886;50.082;8.222;2023-05-10T09:18:12;17.70;99.90
1778;DHT22;886;50.082;8.222;2023-05-10T09:20:40;17.90;99.90
1778;DHT22;886;50.082;8.222;2023-05-10T09:23:07;18.20;99.90
1778;DHT22;886;50.082;8.222;2023-05-10T09:25:35;18.40;99.90
1778;DHT22;886;50.082;8.222;2023-05-10T09:28:06;18.60;99.90
1778;DHT22;886;50.082;8.222;2023-05-10T09:30:35;18.70;99.90
1778;DHT22;886;50.082;8.222;2023-05-10T09:33:03;18.70;99.90
1778;DHT22;886;50.082;8.222;2023-05-10T09:35:32;18.80;99.90
1778;DHT22;886;50.082;8.222;2023-05-10T09:38:02;18.90;99.90
1778;DHT22;886;50.082;8.222;2023-05-10T09:40:31;18.80;99.90
1778;DHT22;886;50.082;8.222;2023-05-10T09:43:00;18.60;99.90
1778;DHT22;886;50.082;8.222;2023-05-10T09:45:30;18.40;99.90
1778;DHT22;886;50.082;8.222;2023-05-10T09:48:01;18.10;99.90
1778;DHT22;886;50.082;8.222;2023-05-10T09:50:30;17.80;99.90
1778;DHT22;886;50.082;8.222;2023-05-10T09:52:59;17.80;99.90
1778;DHT22;886;50.082;8.222;2023-05-10T09:55:39;17.70;99.90
1778;DHT22;886;50.082;8.222;2023-05-10T09:58:10;17.50;99.90
1778;DHT22;886;50.082;8.222;2023-05-10T10:00:39;17.50;99.90
1778;DHT22;886;50.082;8.222;2023-05-10T10:03:14;17.40;99.90
1778;DHT22;886;50.082;8.222;2023-05-10T10:06:00;17.50;99.90
1778;DHT22;886;50.082;8.222;2023-05-10T10:08:28;17.70;99.90
1778;DHT22;886;50.082;8.222;2023-05-10T10:10:55;17.80;99.90
1778;DHT22;886;50.082;8.222;2023-05-10T10:13:23;17.80;99.90
1778;DHT22;886;50.082;8.222;2023-05-10T10:15:50;17.80;99.90
1778;DHT22;886;50.082;8.222;2023-05-10T10:18:23;17.90;99.90
1778;DHT22;886;50.082;8.222;2023-05-10T10:20:54;18.00;99.90
1778;DHT22;886;50.082;8.222;2023-05-10T10:23:23;17.90;99.90
1778;DHT22;886;50.082;8.222;2023-05-10T10:25:50;17.90;99.90
1778;DHT22;886;50.082;8.222;2023-05-10T10:28:35;17.70;99.90
1778;DHT22;886;50.082;8.222;2023-05-10T10:31:17;17.40;99.90
1778;DHT22;886;50.082;8.222;2023-05-10T10:33:59;17.50;99.90
1778;DHT22;886;50.082;8.222;2023-05-10T10:36:39;17.60;99.90
1778;DHT22;886;50.082;8.222;2023-05-10T10:39:09;17.70;99.90
1778;DHT22;886;50.082;8.222;2023-05-10T10:41:40;17.50;99.90
1778;DHT22;886;50.082;8.222;2023-05-10T10:44:40;17.40;99.90
1778;DHT22;886;50.082;8.222;2023-05-10T10:47:21;17.40;99.90
1778;DHT22;886;50.082;8.222;2023-05-10T10:50:09;17.60;99.90
1778;DHT22;886;50.082;8.222;2023-05-10T10:52:40;17.90;99.90
1778;DHT22;886;50.082;8.222;2023-05-10T10:55:11;18.00;99.90
1778;DHT22;886;50.082;8.222;2023-05-10T10:57:52;18.10;99.90
1778;DHT22;886;50.082;8.222;2023-05-10T11:00:29;18.40;99.90
1778;DHT22;886;50.082;8.222;2023-05-10T11:03:03;18.50;99.90
1778;DHT22;886;50.082;8.222;2023-05-10T11:05:40;18.60;99.90
1778;DHT22;886;50.082;8.222;2023-05-10T11:08:19;18.60;99.20
1778;DHT22;886;50.082;8.222;2023-05-10T11:11:02;18.60;99.70
1778;DHT22;886;50.082;8.222;2023-05-10T11:13:38;18.70;98.60
1778;DHT22;886;50.082;8.222;2023-05-10T11:16:12;18.70;97.60
1778;DHT22;886;50.082;8.222;2023-05-10T11:18:52;18.60;96.80
1778;DHT22;886;50.082;8.222;2023-05-10T11:21:22;18.40;97.60
1778;DHT22;886;50.082;8.222;2023-05-10T11:24:13;18.10;98.10
1778;DHT22;886;50.082;8.222;2023-05-10T11:26:42;18.10;98.40
1778;DHT22;886;50.082;8.222;2023-05-10T11:29:09;18.30;99.20
1778;DHT22;886;50.082;8.222;2023-05-10T11:31:42;18.30;98.50
1778;DHT22;886;50.082;8.222;2023-05-10T11:34:10;18.30;98.80
1778;DHT22;886;50.082;8.222;2023-05-10T11:36:39;18.30;99.00
1778;DHT22;886;50.082;8.222;2023-05-10T11:39:07;18.50;98.90
1778;DHT22;886;50.082;8.222;2023-05-10T11:41:34;18.50;98.30
1778;DHT22;886;50.082;8.222;2023-05-10T11:44:02;18.60;98.40
1778;DHT22;886;50.082;8.222;2023-05-10T11:46:29;18.60;98.60
1778;DHT22;886;50.082;8.222;2023-05-10T11:48:59;18.60;98.70
1778;DHT22;886;50.082;8.222;2023-05-10T11:51:35;18.60;97.50
1778;DHT22;886;50.082;8.222;2023-05-10T11:54:07;18.80;97.50
1778;DHT22;886;50.082;8.222;2023-05-10T11:56:36;18.90;97.60
1778;DHT22;886;50.082;8.222;2023-05-10T11:59:04;19.00;96.70
1778;DHT22;886;50.082;8.222;2023-05-10T12:01:32;18.80;97.30
1778;DHT22;886;50.082;8.222;2023-05-10T12:03:59;18.90;96.90
1778;DHT22;886;50.082;8.222;2023-05-10T12:06:30;19.00;97.10
1778;DHT22;886;50.082;8.222;2023-05-10T12:08:59;19.20;96.60
1778;DHT22;886;50.082;8.222;2023-05-10T12:11:29;19.20;96.10
1778;DHT22;886;50.082;8.222;2023-05-10T12:13:56;19.30;95.90
1778;DHT22;886;50.082;8.222;2023-05-10T12:16:25;19.30;95.90
1778;DHT22;886;50.082;8.222;2023-05-10T12:18:57;19.30;96.60
1778;DHT22;886;50.082;8.222;2023-05-10T12:21:27;19.30;96.10
1778;DHT22;886;50.082;8.222;2023-05-10T12:23:59;19.20;96.20
1778;DHT22;886;50.082;8.222;2023-05-10T12:26:30;19.20;96.10
1778;DHT22;886;50.082;8.222;2023-05-10T12:29:12;19.20;96.80
1778;DHT22;886;50.082;8.222;2023-05-10T12:31:51;19.20;97.10
1778;DHT22;886;50.082;8.222;2023-05-10T12:34:24;19.10;96.30
1778;DHT22;886;50.082;8.222;2023-05-10T12:36:53;19.20;97.10
1778;DHT22;886;50.082;8.222;2023-05-10T12:39:21;19.20;96.20
1778;DHT22;886;50.082;8.222;2023-05-10T12:41:52;19.20;96.00
1778;DHT22;886;50.082;8.222;2023-05-10T12:44:19;19.20;96.10
1778;DHT22;886;50.082;8.222;2023-05-10T12:47:04;19.10;95.90
1778;DHT22;886;50.082;8.222;2023-05-10T12:49:34;19.20;95.70
1778;DHT22;886;50.082;8.222;2023-05-10T12:52:01;19.20;95.90
1778;DHT22;886;50.082;8.222;2023-05-10T12:54:29;19.30;95.80
1778;DHT22;886;50.082;8.222;2023-05-10T12:56:57;19.30;95.50
1778;DHT22;886;50.082;8.222;2023-05-10T12:59:25;19.40;95.40
1778;DHT22;886;50.082;8.222;2023-05-10T13:01:52;19.40;95.50
1778;DHT22;886;50.082;8.222;2023-05-10T13:04:20;19.40;95.30
1778;DHT22;886;50.082;8.222;2023-05-10T13:06:49;19.30;94.70
1778;DHT22;886;50.082;8.222;2023-05-10T13:09:17;19.30;95.20
1778;DHT22;886;50.082;8.222;2023-05-10T13:11:44;19.30;94.90
1778;DHT22;886;50.082;8.222;2023-05-10T13:14:13;19.30;95.10
1778;DHT22;886;50.082;8.222;2023-05-10T13:16:41;19.40;95.60
1778;DHT22;886;50.082;8.222;2023-05-10T13:19:08;19.40;95.50
1778;DHT22;886;50.082;8.222;2023-05-10T13:21:36;19.50;95.60
1778;DHT22;886;50.082;8.222;2023-05-10T13:24:03;19.50;95.90
1778;DHT22;886;50.082;8.222;2023-05-10T13:26:32;19.20;95.60
1778;DHT22;886;50.082;8.222;2023-05-10T13:28:59;19.30;96.10
1778;DHT22;886;50.082;8.222;2023-05-10T13:31:46;19.30;96.20
1778;DHT22;886;50.082;8.222;2023-05-10T13:34:16;19.40;96.40
1778;DHT22;886;50.082;8.222;2023-05-10T13:36:43;19.50;96.00
1778;DHT22;886;50.082;8.222;2023-05-10T13:39:11;19.50;95.90
1778;DHT22;886;50.082;8.222;2023-05-10T13:41:38;19.40;96.10
1778;DHT22;886;50.082;8.222;2023-05-10T13:44:06;19.50;96.40
1778;DHT22;886;50.082;8.222;2023-05-10T13:46:34;19.50;96.00
1778;DHT22;886;50.082;8.222;2023-05-10T13:49:03;19.50;96.10
1778;DHT22;886;50.082;8.222;2023-05-10T13:51:30;19.50;95.80
1778;DHT22;886;50.082;8.222;2023-05-10T13:53:58;19.50;96.00
1778;DHT22;886;50.082;8.222;2023-05-10T13:56:25;19.40;95.90
1778;DHT22;886;50.082;8.222;2023-05-10T13:58:53;19.30;96.40
1778;DHT22;886;50.082;8.222;2023-05-10T14:01:20;19.40;96.10
1778;DHT22;886;50.082;8.222;2023-05-10T14:03:48;19.20;96.40
1778;DHT22;886;50.082;8.222;2023-05-10T14:06:17;19.00;96.10
1778;DHT22;886;50.082;8.222;2023-05-10T14:08:44;18.80;96.60
1778;DHT22;886;50.082;8.222;2023-05-10T14:11:14;18.70;96.00
1778;DHT22;886;50.082;8.222;2023-05-10T14:13:41;18.50;96.10
1778;DHT22;886;50.082;8.222;2023-05-10T14:16:08;18.60;96.20
1778;DHT22;886;50.082;8.222;2023-05-10T14:18:36;18.80;96.20
1778;DHT22;886;50.082;8.222;2023-05-10T14:21:03;18.90;95.60
1778;DHT22;886;50.082;8.222;2023-05-10T14:23:33;18.90;95.30
1778;DHT22;886;50.082;8.222;2023-05-10T14:26:00;18.90;95.30
1778;DHT22;886;50.082;8.222;2023-05-10T14:28:30;19.10;94.90
1778;DHT22;886;50.082;8.222;2023-05-10T14:30:57;19.20;94.30
1778;DHT22;886;50.082;8.222;2023-05-10T14:33:25;19.30;93.60
1778;DHT22;886;50.082;8.222;2023-05-10T14:35:53;19.30;93.10
1778;DHT22;886;50.082;8.222;2023-05-10T14:38:23;19.30;93.50
1778;DHT22;886;50.082;8.222;2023-05-10T14:40:51;19.40;94.40
1778;DHT22;886;50.082;8.222;2023-05-10T14:43:18;19.50;94.10
1778;DHT22;886;50.082;8.222;2023-05-10T14:45:45;19.60;93.90
1778;DHT22;886;50.082;8.222;2023-05-10T14:48:13;19.50;93.80
1778;DHT22;886;50.082;8.222;2023-05-10T14:50:42;19.60;93.40
1778;DHT22;886;50.082;8.222;2023-05-10T14:53:09;19.60;93.70
1778;DHT22;886;50.082;8.222;2023-05-10T14:55:37;19.60;93.90
1778;DHT22;886;50.082;8.222;2023-05-10T14:58:06;19.70;93.90
1778;DHT22;886;50.082;8.222;2023-05-10T15:00:33;19.70;93.90
1778;DHT22;886;50.082;8.222;2023-05-10T15:03:01;19.70;93.90
1778;DHT22;886;50.082;8.222;2023-05-10T15:05:29;19.70;94.00
1778;DHT22;886;50.082;8.222;2023-05-10T15:07:56;19.70;94.30
1778;DHT22;886;50.082;8.222;2023-05-10T15:10:23;19.70;94.20
1778;DHT22;886;50.082;8.222;2023-05-10T15:12:50;19.70;94.40
1778;DHT22;886;50.082;8.222;2023-05-10T15:15:19;19.70;94.20
1778;DHT22;886;50.082;8.222;2023-05-10T15:17:47;19.70;94.60
1778;DHT22;886;50.082;8.222;2023-05-10T15:20:14;19.70;94.40
1778;DHT22;886;50.082;8.222;2023-05-10T15:22:42;19.70;94.30
1778;DHT22;886;50.082;8.222;2023-05-10T15:25:09;19.70;94.60
1778;DHT22;886;50.082;8.222;2023-05-10T15:27:36;19.70;94.80
1778;DHT22;886;50.082;8.222;2023-05-10T15:30:04;19.70;94.80
1778;DHT22;886;50.082;8.222;2023-05-10T15:32:34;19.60;94.50
1778;DHT22;886;50.082;8.222;2023-05-10T15:35:01;19.60;94.70
1778;DHT22;886;50.082;8.222;2023-05-10T15:37:29;19.60;95.00
1778;DHT22;886;50.082;8.222;2023-05-10T15:39:56;19.60;94.60
1778;DHT22;886;50.082;8.222;2023-05-10T15:42:31;19.60;94.30
1778;DHT22;886;50.082;8.222;2023-05-10T15:44:58;19.70;94.10
1778;DHT22;886;50.082;8.222;2023-05-10T15:47:26;19.60;94.50
1778;DHT22;886;50.082;8.222;2023-05-10T15:49:55;19.60;94.40
1778;DHT22;886;50.082;8.222;2023-05-10T15:52:22;19.50;94.00
1778;DHT22;886;50.082;8.222;2023-05-10T15:54:49;19.60;94.40
1778;DHT22;886;50.082;8.222;2023-05-10T15:57:17;19.50;94.10
1778;DHT22;886;50.082;8.222;2023-05-10T15:59:44;19.50;94.40
1778;DHT22;886;50.082;8.222;2023-05-10T16:02:11;19.50;94.00
1778;DHT22;886;50.082;8.222;2023-05-10T16:04:39;19.50;94.00
1778;DHT22;886;50.082;8.222;2023-05-10T16:07:07;19.50;94.20
1778;DHT22;886;50.082;8.222;2023-05-10T16:09:34;19.50;94.00
1778;DHT22;886;50.082;8.222;2023-05-10T16:12:01;19.50;94.50
1778;DHT22;886;50.082;8.222;2023-05-10T16:14:29;19.40;94.20
1778;DHT22;886;50.082;8.222;2023-05-10T16:16:56;19.40;94.60
1778;DHT22;886;50.082;8.222;2023-05-10T16:19:23;19.40;94.60
1778;DHT22;886;50.082;8.222;2023-05-10T16:21:52;19.40;94.50
1778;DHT22;886;50.082;8.222;2023-05-10T16:24:21;19.20;93.90
1778;DHT22;886;50.082;8.222;2023-05-10T16:26:49;19.20;94.10
1778;DHT22;886;50.082;8.222;2023-05-10T16:29:16;19.20;94.20
1778;DHT22;886;50.082;8.222;2023-05-10T16:31:43;19.30;94.10
1778;DHT22;886;50.082;8.222;2023-05-10T16:34:10;19.20;93.40
1778;DHT22;886;50.082;8.222;2023-05-10T16:36:37;19.20;93.40
1778;DHT22;886;50.082;8.222;2023-05-10T16:39:04;19.30;93.40
1778;DHT22;886;50.082;8.222;2023-05-10T16:41:33;19.30;93.20
1778;DHT22;886;50.082;8.222;2023-05-10T16:44:01;19.30;93.20